createdAt,value
2017-09-22T00:01:58.633Z,20.10
2017-09-22T00:04:26.155Z,20.27
2017-09-22T00:06:53.681Z,23.63
2017-09-22T00:09:21.217Z,19.43
2017-09-22T00:11:48.767Z,20.77
2017-09-22T00:14:16.330Z,24.80
2017-09-22T00:16:43.886Z,18.77
2017-09-22T00:19:12.954Z,18.73
2017-09-22T00:21:42.157Z,20.73
2017-09-22T00:24:09.702Z,19.70
2017-09-22T00:26:37.993Z,22.17
2017-09-22T00:29:05.545Z,25.00
2017-09-22T00:31:33.850Z,21.37
2017-09-22T00:34:01.420Z,22.67
2017-09-22T00:36:28.944Z,20.70
2017-09-22T00:38:56.489Z,21.73
2017-09-22T00:41:24.781Z,25.57
2017-09-22T00:43:53.062Z,20.37
2017-09-22T00:46:20.601Z,21.07
2017-09-22T00:48:48.893Z,22.13
2017-09-22T00:51:16.425Z,20.00
2017-09-22T00:53:44.030Z,21.93
2017-09-22T00:56:11.557Z,25.17
2017-09-22T00:58:39.853Z,23.30
2017-09-22T01:01:07.389Z,28.07
2017-09-22T01:03:34.905Z,25.13
2017-09-22T01:06:02.453Z,26.17
2017-09-22T01:08:30.013Z,20.87
2017-09-22T01:10:57.543Z,24.50
2017-09-22T01:13:25.828Z,21.40
2017-09-22T01:15:53.423Z,22.90
2017-09-22T01:18:20.950Z,26.10
2017-09-22T01:20:48.528Z,24.53
2017-09-22T01:23:16.073Z,21.50
2017-09-22T01:25:45.770Z,23.42
2017-09-22T01:28:13.306Z,20.70
2017-09-22T01:30:40.922Z,24.83
2017-09-22T01:33:08.446Z,25.37
2017-09-22T01:35:36.041Z,21.70
2017-09-22T01:38:03.602Z,22.13
2017-09-22T01:40:31.117Z,20.43
2017-09-22T01:42:59.413Z,22.80
2017-09-22T01:45:26.953Z,27.90
2017-09-22T01:47:55.237Z,21.70
2017-09-22T01:50:23.521Z,23.97
2017-09-22T01:52:51.828Z,20.43
2017-09-22T01:55:19.349Z,22.23
2017-09-22T01:57:47.645Z,24.07
2017-09-22T02:00:15.185Z,23.80
2017-09-22T02:02:43.476Z,21.97
2017-09-22T02:05:11.056Z,23.43
2017-09-22T02:07:38.599Z,20.67
2017-09-22T02:10:06.125Z,23.90
2017-09-22T02:12:33.662Z,27.13
2017-09-22T02:15:01.205Z,27.87
2017-09-22T02:17:28.756Z,24.50
2017-09-22T02:19:56.276Z,24.20
2017-09-22T02:22:24.581Z,25.60
2017-09-22T02:24:52.114Z,27.40
2017-09-22T02:27:20.429Z,24.10
2017-09-22T02:29:47.985Z,25.27
2017-09-22T02:32:15.556Z,29.50
2017-09-22T02:34:43.106Z,21.83
2017-09-22T02:37:10.802Z,22.30
2017-09-22T02:39:38.325Z,23.50
2017-09-22T02:42:05.846Z,24.97
2017-09-22T02:44:34.154Z,24.20
2017-09-22T02:47:01.682Z,22.10
2017-09-22T02:49:29.970Z,27.90
2017-09-22T02:51:58.277Z,21.30
2017-09-22T02:54:25.805Z,24.80
2017-09-22T02:56:54.103Z,20.20
2017-09-22T02:59:21.637Z,22.43
2017-09-22T03:01:50.050Z,22.35
2017-09-22T03:04:17.569Z,22.43
2017-09-22T03:06:45.891Z,22.67
2017-09-22T03:09:13.408Z,21.27
2017-09-22T03:11:41.725Z,20.13
2017-09-22T03:14:09.267Z,22.03
2017-09-22T03:16:36.848Z,20.77
2017-09-22T03:19:04.410Z,21.37
2017-09-22T03:21:31.950Z,19.67
2017-09-22T03:23:59.470Z,35.80
2017-09-22T03:26:28.522Z,22.97
2017-09-22T03:28:56.077Z,19.77
2017-09-22T03:31:23.640Z,21.50
2017-09-22T03:33:51.156Z,21.70
2017-09-22T03:36:19.478Z,22.43
2017-09-22T03:38:47.035Z,20.20
2017-09-22T03:41:14.562Z,22.13
2017-09-22T03:43:42.866Z,20.37
2017-09-22T03:46:10.434Z,17.67
2017-09-22T03:48:37.994Z,26.23
2017-09-22T03:51:05.534Z,19.10
2017-09-22T03:53:33.058Z,19.23
2017-09-22T03:56:01.350Z,17.20
2017-09-22T03:58:29.769Z,43.50
2017-09-22T04:00:57.290Z,20.63
2017-09-22T04:03:25.612Z,20.17
2017-09-22T04:05:53.145Z,19.17
2017-09-22T04:08:20.671Z,19.00
2017-09-22T04:10:48.198Z,18.10
2017-09-22T04:13:15.742Z,16.62
2017-09-22T04:15:43.264Z,19.90
2017-09-22T04:18:11.557Z,19.03
2017-09-22T04:20:39.101Z,16.67
2017-09-22T04:23:07.417Z,19.10
2017-09-22T04:25:34.933Z,15.53
2017-09-22T04:28:02.479Z,18.80
2017-09-22T04:30:30.012Z,18.67
2017-09-22T04:32:57.556Z,23.17
2017-09-22T04:35:25.110Z,19.77
2017-09-22T04:37:52.675Z,20.93
2017-09-22T04:40:20.194Z,20.43
2017-09-22T04:42:48.502Z,20.90
2017-09-22T04:45:16.071Z,20.50
2017-09-22T04:47:43.602Z,21.40
2017-09-22T04:50:11.190Z,20.67
2017-09-22T04:52:38.721Z,19.80
2017-09-22T04:55:06.245Z,18.90
2017-09-22T04:57:33.789Z,21.27
2017-09-22T05:00:01.326Z,21.93
2017-09-22T05:02:28.854Z,19.07
2017-09-22T05:04:57.162Z,17.60
2017-09-22T05:07:26.157Z,19.12
2017-09-22T05:09:53.677Z,18.97
2017-09-22T05:12:21.977Z,20.20
2017-09-22T05:14:49.493Z,19.53
2017-09-22T05:17:17.025Z,20.80
2017-09-22T05:19:44.669Z,23.20
2017-09-22T05:22:12.288Z,20.67
2017-09-22T05:24:40.569Z,19.47
2017-09-22T05:27:09.393Z,20.40
2017-09-22T05:29:36.917Z,20.37
2017-09-22T05:32:05.237Z,22.70
2017-09-22T05:34:32.906Z,19.50
2017-09-22T05:37:00.454Z,21.67
2017-09-22T05:39:28.822Z,21.70
2017-09-22T05:41:56.363Z,18.57
2017-09-22T05:44:24.648Z,19.10
2017-09-22T05:46:52.223Z,19.63
2017-09-22T05:49:19.790Z,18.53
2017-09-22T05:51:47.322Z,18.17
2017-09-22T05:54:15.613Z,18.93
2017-09-22T05:56:43.154Z,18.00
2017-09-22T05:59:11.446Z,14.80
2017-09-22T06:01:38.978Z,18.40
2017-09-22T06:04:07.305Z,18.67
2017-09-22T06:06:34.833Z,17.50
2017-09-22T06:09:03.121Z,17.50
2017-09-22T06:11:30.709Z,17.50
2017-09-22T06:13:59.157Z,18.90
2017-09-22T06:16:26.701Z,18.13
2017-09-22T06:18:55.013Z,15.30
2017-09-22T06:21:22.577Z,15.67
2017-09-22T06:23:50.109Z,16.77
2017-09-22T06:26:18.413Z,18.13
2017-09-22T06:28:45.979Z,20.20
2017-09-22T06:31:13.529Z,18.03
2017-09-22T06:33:41.093Z,19.10
2017-09-22T06:36:08.625Z,17.03
2017-09-22T06:38:36.152Z,15.80
2017-09-22T06:41:03.696Z,17.47
2017-09-22T06:43:31.224Z,19.20
2017-09-22T06:45:58.746Z,15.90
2017-09-22T06:48:27.060Z,15.23
2017-09-22T06:50:54.590Z,17.90
2017-09-22T06:53:22.883Z,19.37
2017-09-22T06:55:50.428Z,16.08
2017-09-22T06:58:18.714Z,14.13
2017-09-22T07:00:46.305Z,14.73
2017-09-22T07:03:13.850Z,17.33
2017-09-22T07:05:41.386Z,14.10
2017-09-22T07:08:09.694Z,13.25
2017-09-22T07:10:37.245Z,16.57
2017-09-22T07:13:05.030Z,14.80
2017-09-22T07:15:32.566Z,14.67
2017-09-22T07:18:01.065Z,17.13
2017-09-22T07:20:28.626Z,14.50
2017-09-22T07:22:56.185Z,14.30
2017-09-22T07:25:23.737Z,13.40
2017-09-22T07:27:51.297Z,13.53
2017-09-22T07:30:18.864Z,13.40
2017-09-22T07:32:47.009Z,14.43
2017-09-22T07:35:14.549Z,15.50
2017-09-22T07:37:42.840Z,13.80
2017-09-22T07:40:11.145Z,14.63
2017-09-22T07:42:38.705Z,13.97
2017-09-22T07:45:06.262Z,15.17
2017-09-22T07:47:33.834Z,14.07
2017-09-22T07:50:02.909Z,16.27
2017-09-22T07:52:30.477Z,13.30
2017-09-22T07:54:58.150Z,14.37
2017-09-22T07:57:25.682Z,16.37
2017-09-22T07:59:53.212Z,15.13
2017-09-22T08:02:21.530Z,14.50
2017-09-22T08:04:49.069Z,15.07
2017-09-22T08:07:17.381Z,14.83
2017-09-22T08:09:44.926Z,14.93
2017-09-22T08:12:12.462Z,14.33
2017-09-22T08:14:40.759Z,13.97
2017-09-22T08:17:08.441Z,19.47
2017-09-22T08:19:36.001Z,14.70
2017-09-22T08:22:03.566Z,15.03
2017-09-22T08:24:31.227Z,17.50
2017-09-22T08:26:58.757Z,15.30
2017-09-22T08:29:26.334Z,18.60
2017-09-22T08:31:53.877Z,18.17
2017-09-22T08:34:21.401Z,17.40
2017-09-22T08:36:49.735Z,15.40
2017-09-22T08:39:17.280Z,16.00
2017-09-22T08:41:44.811Z,17.13
2017-09-22T08:44:13.105Z,16.63
2017-09-22T08:46:41.505Z,19.97
2017-09-22T08:49:09.034Z,18.80
2017-09-22T08:51:37.329Z,18.33
2017-09-22T08:54:04.882Z,19.10
2017-09-22T08:56:32.431Z,19.53
2017-09-22T08:59:00.746Z,16.80
2017-09-22T09:01:28.302Z,16.40
2017-09-22T09:03:55.836Z,17.73
2017-09-22T09:06:23.422Z,16.70
2017-09-22T09:08:50.979Z,16.27
2017-09-22T09:11:18.506Z,17.10
2017-09-22T09:13:46.818Z,17.73
2017-09-22T09:16:14.398Z,17.60
2017-09-22T09:18:41.938Z,18.90
2017-09-22T09:21:09.474Z,17.57
2017-09-22T09:23:37.061Z,17.37
2017-09-22T09:26:05.721Z,18.33
2017-09-22T09:28:33.254Z,19.90
2017-09-22T09:31:01.581Z,21.00
2017-09-22T09:33:29.115Z,18.40
2017-09-22T09:35:56.709Z,22.63
2017-09-22T09:38:24.257Z,16.97
2017-09-22T09:40:51.785Z,19.00
2017-09-22T09:43:20.083Z,18.73
2017-09-22T09:45:47.625Z,18.57
2017-09-22T09:48:15.185Z,20.07
2017-09-22T09:50:43.509Z,17.97
2017-09-22T09:53:11.057Z,18.03
2017-09-22T09:55:38.588Z,19.40
2017-09-22T09:58:06.112Z,19.10
2017-09-22T10:00:33.736Z,19.50
2017-09-22T10:03:01.262Z,18.10
2017-09-22T10:05:28.790Z,18.90
2017-09-22T10:07:56.340Z,23.90
2017-09-22T10:10:23.986Z,19.87
2017-09-22T10:12:51.514Z,18.17
2017-09-22T10:15:19.090Z,19.30
2017-09-22T10:17:46.618Z,18.83
2017-09-22T10:20:15.023Z,17.57
2017-09-22T10:22:42.590Z,21.47
2017-09-22T10:25:10.130Z,20.90
2017-09-22T10:27:37.657Z,20.33
2017-09-22T10:30:05.205Z,19.70
2017-09-22T10:32:32.742Z,20.77
2017-09-22T10:35:00.281Z,20.00
2017-09-22T10:37:27.835Z,21.50
2017-09-22T10:39:55.405Z,21.60
2017-09-22T10:42:22.961Z,21.33
2017-09-22T10:44:50.521Z,21.17
2017-09-22T10:47:18.085Z,24.10
2017-09-22T10:49:45.611Z,23.77
2017-09-22T10:52:13.921Z,21.80
2017-09-22T10:54:41.450Z,19.80
2017-09-22T10:57:09.743Z,20.80
2017-09-22T10:59:38.644Z,21.60
2017-09-22T11:02:06.166Z,21.03
2017-09-22T11:04:34.470Z,21.43
2017-09-22T11:07:02.015Z,19.90
2017-09-22T11:09:30.310Z,19.07
2017-09-22T11:11:57.842Z,20.70
2017-09-22T11:14:26.270Z,39.03
2017-09-22T11:16:53.818Z,19.20
2017-09-22T11:19:21.354Z,19.77
2017-09-22T11:21:48.937Z,19.43
2017-09-22T11:24:16.461Z,20.50
2017-09-22T11:26:44.758Z,20.40
2017-09-22T11:29:12.341Z,20.50
2017-09-22T11:31:39.489Z,21.83
2017-09-22T11:34:06.522Z,21.77
2017-09-22T11:36:34.073Z,19.00
2017-09-22T11:39:01.594Z,23.13
2017-09-22T11:41:29.225Z,22.03
2017-09-22T11:43:56.873Z,21.60
2017-09-22T11:46:24.401Z,36.40
2017-09-22T11:48:52.717Z,21.27
2017-09-22T11:51:20.268Z,18.30
2017-09-22T11:53:47.795Z,19.60
2017-09-22T11:56:16.090Z,18.80
2017-09-22T11:58:43.640Z,30.57
2017-09-22T12:01:11.169Z,18.13
2017-09-22T12:03:39.630Z,18.53
2017-09-22T12:06:07.274Z,18.80
2017-09-22T12:08:34.808Z,20.00
2017-09-22T12:11:02.334Z,17.13
2017-09-22T12:13:29.882Z,17.37
2017-09-22T12:15:57.418Z,19.10
2017-09-22T12:18:24.954Z,19.80
2017-09-22T12:20:52.498Z,18.60
2017-09-22T12:23:20.022Z,18.00
2017-09-22T12:25:47.546Z,18.10
2017-09-22T12:28:15.102Z,19.50
2017-09-22T12:30:42.637Z,19.93
2017-09-22T12:33:10.601Z,17.87
2017-09-22T12:35:38.905Z,19.20
2017-09-22T12:38:06.473Z,17.50
2017-09-22T12:40:33.997Z,17.33
2017-09-22T12:43:02.405Z,19.13
2017-09-22T12:45:29.931Z,18.67
2017-09-22T12:47:58.247Z,18.60
2017-09-22T12:50:25.805Z,18.27
2017-09-22T12:52:53.337Z,18.90
2017-09-22T12:55:20.931Z,17.80
2017-09-22T12:57:48.482Z,19.05
2017-09-22T13:00:16.045Z,17.03
2017-09-22T13:02:43.606Z,29.40
2017-09-22T13:05:12.493Z,26.42
2017-09-22T13:07:40.025Z,18.33
2017-09-22T13:10:08.319Z,17.20
2017-09-22T13:12:35.871Z,16.33
2017-09-22T13:15:03.405Z,16.67
2017-09-22T13:17:31.698Z,17.07
2017-09-22T13:19:59.288Z,15.90
2017-09-22T13:22:26.818Z,15.20
2017-09-22T13:24:54.351Z,16.87
2017-09-22T13:27:21.895Z,17.70
2017-09-22T13:29:49.525Z,16.70
2017-09-22T13:32:17.054Z,16.90
2017-09-22T13:34:45.396Z,16.17
2017-09-22T13:37:12.935Z,15.97
2017-09-22T13:39:41.238Z,16.00
2017-09-22T13:42:08.812Z,16.23
2017-09-22T13:44:37.109Z,16.23
2017-09-22T13:47:05.406Z,15.73
2017-09-22T13:49:32.949Z,17.50
2017-09-22T13:52:00.545Z,14.97
2017-09-22T13:54:28.069Z,15.90
2017-09-22T13:56:55.653Z,15.97
2017-09-22T13:59:23.213Z,15.67
2017-09-22T14:01:50.873Z,15.00
2017-09-22T14:04:18.437Z,13.53
2017-09-22T14:06:45.969Z,14.03
2017-09-22T14:09:14.599Z,13.27
2017-09-22T14:11:44.485Z,13.57
2017-09-22T14:14:12.052Z,13.73
2017-09-22T14:16:39.577Z,12.90
2017-09-22T14:19:07.886Z,12.80
2017-09-22T14:21:35.410Z,12.67
2017-09-22T14:24:03.722Z,11.60
2017-09-22T14:26:31.264Z,13.80
2017-09-22T14:28:58.788Z,11.83
2017-09-22T14:31:26.315Z,12.40
2017-09-22T14:33:53.866Z,11.33
2017-09-22T14:36:21.390Z,10.83
2017-09-22T14:38:49.702Z,10.87
2017-09-22T14:41:17.258Z,10.07
2017-09-22T14:43:45.749Z,11.60
2017-09-22T14:46:13.310Z,10.90
2017-09-22T14:48:40.858Z,10.20
2017-09-22T14:51:08.392Z,10.03
2017-09-22T14:53:36.680Z,10.90
2017-09-22T14:56:04.225Z,12.50
2017-09-22T14:58:32.523Z,10.90
2017-09-22T15:01:00.043Z,5.77
2017-09-22T15:03:28.347Z,6.17
2017-09-22T15:05:55.924Z,6.67
2017-09-22T15:08:23.486Z,6.00
2017-09-22T15:10:51.045Z,9.30
2017-09-22T15:13:18.567Z,9.03
2017-09-22T15:15:46.862Z,13.40
2017-09-22T15:18:14.450Z,48.97
2017-09-22T15:20:42.008Z,12.10
2017-09-22T15:23:09.538Z,8.70
2017-09-22T15:25:37.918Z,8.43
2017-09-22T15:28:05.442Z,8.53
2017-09-22T15:30:32.970Z,8.87
2017-09-22T15:33:00.510Z,8.40
2017-09-22T15:35:28.077Z,7.57
2017-09-22T15:37:55.637Z,7.53
2017-09-22T15:40:23.204Z,5.63
2017-09-22T15:42:50.761Z,7.10
2017-09-22T15:45:18.321Z,6.83
2017-09-22T15:47:45.853Z,8.30
2017-09-22T15:50:14.157Z,8.70
2017-09-22T15:52:41.713Z,8.27
2017-09-22T15:55:09.245Z,7.67
2017-09-22T15:57:37.585Z,9.47
2017-09-22T16:00:05.107Z,9.90
2017-09-22T16:02:32.649Z,9.97
2017-09-22T16:05:00.175Z,10.57
2017-09-22T16:07:27.699Z,9.83
2017-09-22T16:09:55.249Z,10.43
2017-09-22T16:12:22.812Z,11.17
2017-09-22T16:14:50.368Z,10.47
2017-09-22T16:17:19.050Z,9.00
2017-09-22T16:19:46.569Z,9.03
2017-09-22T16:22:14.853Z,9.87
2017-09-22T16:24:43.167Z,10.90
2017-09-22T16:27:10.736Z,10.30
2017-09-22T16:29:38.257Z,9.00
2017-09-22T16:32:06.570Z,10.83
2017-09-22T16:34:34.094Z,12.17
2017-09-22T16:37:02.380Z,15.07
2017-09-22T16:39:29.930Z,11.63
2017-09-22T16:41:58.244Z,20.40
2017-09-22T16:44:25.802Z,14.53
2017-09-22T16:46:53.361Z,11.33
2017-09-22T16:49:20.897Z,10.07
2017-09-22T16:51:49.345Z,11.37
2017-09-22T16:54:16.893Z,10.20
2017-09-22T16:56:44.515Z,13.07
2017-09-22T16:59:12.041Z,12.43
2017-09-22T17:01:40.352Z,12.10
2017-09-22T17:04:07.917Z,12.13
2017-09-22T17:06:36.219Z,13.53
2017-09-22T17:09:03.866Z,12.50
2017-09-22T17:11:31.413Z,13.27
2017-09-22T17:13:58.977Z,20.43
2017-09-22T17:16:26.527Z,14.13
2017-09-22T17:18:54.048Z,11.67
2017-09-22T17:21:22.335Z,12.13
2017-09-22T17:23:51.568Z,14.10
2017-09-22T17:26:19.094Z,18.43
2017-09-22T17:28:47.386Z,17.10
2017-09-22T17:31:14.970Z,13.70
2017-09-22T17:33:42.540Z,14.70
2017-09-22T17:36:10.067Z,16.30
2017-09-22T17:38:37.610Z,17.30
2017-09-22T17:41:06.025Z,14.17
2017-09-22T17:43:33.580Z,14.63
2017-09-22T17:46:01.125Z,14.67
2017-09-22T17:48:28.713Z,15.70
2017-09-22T17:50:56.241Z,15.17
2017-09-22T17:53:23.785Z,17.40
2017-09-22T17:55:52.793Z,19.42
2017-09-22T17:58:20.373Z,22.00
2017-09-22T18:00:47.925Z,37.30
2017-09-22T18:03:15.491Z,39.37
2017-09-22T18:05:43.061Z,30.17
2017-09-22T18:08:10.625Z,32.60
2017-09-22T18:10:38.157Z,29.20
2017-09-22T18:13:05.697Z,22.63
2017-09-22T18:15:34.013Z,18.27
2017-09-22T18:18:01.544Z,20.47
2017-09-22T18:20:29.132Z,23.87
2017-09-22T18:22:56.685Z,22.97
2017-09-22T18:25:24.212Z,23.23
2017-09-22T18:27:53.438Z,24.37
2017-09-22T18:30:20.982Z,38.23
2017-09-22T18:32:49.274Z,31.03
2017-09-22T18:35:16.806Z,48.07
2017-09-22T18:37:45.228Z,47.57
2017-09-22T18:40:12.762Z,37.20
2017-09-22T18:42:40.299Z,43.87
2017-09-22T18:45:08.618Z,33.83
2017-09-22T18:47:36.158Z,32.63
2017-09-22T18:50:03.688Z,35.80
2017-09-22T18:52:31.242Z,31.73
2017-09-22T18:54:58.870Z,29.27
2017-09-22T18:57:26.402Z,30.40
2017-09-22T18:59:55.241Z,30.37
2017-09-22T19:02:22.870Z,33.73
2017-09-22T19:04:50.437Z,49.23
2017-09-22T19:07:17.977Z,37.10
2017-09-22T19:09:45.505Z,37.60
2017-09-22T19:12:13.831Z,35.70
2017-09-22T19:14:41.373Z,28.40
2017-09-22T19:17:08.919Z,28.73
2017-09-22T19:19:37.225Z,32.43
2017-09-22T19:22:04.771Z,34.13
2017-09-22T19:24:32.345Z,33.73
2017-09-22T19:26:59.907Z,33.67
2017-09-22T19:29:27.478Z,32.00
2017-09-22T19:31:56.531Z,38.47
2017-09-22T19:34:24.072Z,38.10
2017-09-22T19:36:52.386Z,34.80
2017-09-22T19:39:20.486Z,32.80
2017-09-22T19:41:48.044Z,34.90
2017-09-22T19:44:15.590Z,40.07
2017-09-22T19:46:43.123Z,37.77
2017-09-22T19:49:10.710Z,36.50
2017-09-22T19:51:38.253Z,37.93
2017-09-22T19:54:05.782Z,41.27
2017-09-22T19:56:34.102Z,45.30
2017-09-22T19:59:01.648Z,44.40
2017-09-22T20:01:29.173Z,46.43
2017-09-22T20:03:57.781Z,54.38
2017-09-22T20:06:25.365Z,47.37
2017-09-22T20:08:52.925Z,42.77
2017-09-22T20:11:20.449Z,37.67
2017-09-22T20:13:48.865Z,35.70
2017-09-22T20:16:17.295Z,35.17
2017-09-22T20:18:44.863Z,34.10
2017-09-22T20:21:13.174Z,38.70
2017-09-22T20:23:40.758Z,35.27
2017-09-22T20:26:08.309Z,39.43
2017-09-22T20:28:35.904Z,38.80
2017-09-22T20:31:03.426Z,36.30
2017-09-22T20:33:30.955Z,35.50
2017-09-22T20:35:59.370Z,88.07
2017-09-22T20:38:26.926Z,41.57
2017-09-22T20:40:54.450Z,38.80
2017-09-22T20:43:22.025Z,35.77
2017-09-22T20:45:49.549Z,37.43
2017-09-22T20:48:17.070Z,47.40
2017-09-22T20:50:44.621Z,43.40
2017-09-22T20:53:12.149Z,44.85
2017-09-22T20:55:40.458Z,45.47
2017-09-22T20:58:08.773Z,38.50
2017-09-22T21:00:36.408Z,36.30
2017-09-22T21:03:03.974Z,35.80
2017-09-22T21:05:31.512Z,34.70
2017-09-22T21:08:00.622Z,35.13
2017-09-22T21:10:28.172Z,35.60
2017-09-22T21:12:55.722Z,39.50
2017-09-22T21:15:23.246Z,40.07
2017-09-22T21:17:51.538Z,42.10
2017-09-22T21:20:19.953Z,40.77
2017-09-22T21:22:47.481Z,41.20
2017-09-22T21:25:15.066Z,44.00
2017-09-22T21:27:42.622Z,35.80
2017-09-22T21:30:10.194Z,40.70
2017-09-22T21:32:37.725Z,39.47
2017-09-22T21:35:05.604Z,36.50
2017-09-22T21:37:33.181Z,42.28
2017-09-22T21:40:01.930Z,38.15
2017-09-22T21:42:31.262Z,41.10
2017-09-22T21:44:59.201Z,39.30
2017-09-22T21:47:27.500Z,37.37
2017-09-22T21:49:55.071Z,31.43
2017-09-22T21:52:22.623Z,35.20
2017-09-22T21:54:50.189Z,35.53
2017-09-22T21:57:17.733Z,29.90
2017-09-22T21:59:45.519Z,25.03
2017-09-22T22:02:13.153Z,26.37
2017-09-22T22:04:46.341Z,27.33
2017-09-22T22:07:19.521Z,20.20
2017-09-22T22:09:47.841Z,23.73
2017-09-22T22:12:15.364Z,21.77
2017-09-22T22:14:42.957Z,29.00
2017-09-22T22:17:11.427Z,27.67
2017-09-22T22:19:39.005Z,26.30
2017-09-22T22:22:06.553Z,25.60
2017-09-22T22:24:34.216Z,27.90
2017-09-22T22:27:01.744Z,26.03
2017-09-22T22:29:29.290Z,26.30
2017-09-22T22:31:57.606Z,29.97
2017-09-22T22:34:25.174Z,28.80
2017-09-22T22:37:04.830Z,29.67
2017-09-22T22:39:32.357Z,34.30
2017-09-22T22:41:59.889Z,35.37
2017-09-22T22:44:28.334Z,32.70
2017-09-22T22:46:58.453Z,34.70
2017-09-22T22:49:25.981Z,38.37
2017-09-22T22:51:53.534Z,36.87
2017-09-22T22:54:23.323Z,34.57
2017-09-22T22:56:51.841Z,31.53
2017-09-22T22:59:19.409Z,34.17
2017-09-22T23:01:46.933Z,32.60
2017-09-22T23:04:15.817Z,28.80
2017-09-22T23:06:44.239Z,29.77
2017-09-22T23:09:11.833Z,32.33
2017-09-22T23:11:39.365Z,34.87
2017-09-22T23:14:06.970Z,27.27
2017-09-22T23:16:36.203Z,27.83
2017-09-22T23:19:03.729Z,30.43
2017-09-22T23:21:32.061Z,29.30
2017-09-22T23:23:59.572Z,25.17
2017-09-22T23:26:27.904Z,26.10
2017-09-22T23:28:55.451Z,24.27
2017-09-22T23:31:23.017Z,23.50
2017-09-22T23:33:50.544Z,21.50
2017-09-22T23:36:18.924Z,26.07
2017-09-22T23:38:46.608Z,22.30
2017-09-22T23:41:14.132Z,21.20
2017-09-22T23:43:42.442Z,22.67
2017-09-22T23:46:09.970Z,22.67
2017-09-22T23:48:38.256Z,21.00
2017-09-22T23:51:07.490Z,20.30
2017-09-22T23:53:35.042Z,22.40
2017-09-22T23:56:02.570Z,20.50
2017-09-22T23:58:30.894Z,23.03
